Flight Track Log - Related Links

Times and Time Zones

All times are in EDT time to prevent confusion due to time zone crossing. See the SWA1903 flight status page for this flight to view local times or setup timezone preferences in your user account.

Time Position Orientation Groundspeed Altitude Reporting Facility
EDT Latitude Longitude Course Direction KTS MPH feet Rate Location/Type
Mon 09:50:19 AM 42.1972 -83.3636 226° Southwest 167 192 1,500  Level Cleveland Center
Mon 09:50:56 AM 42.1778 -83.3908 226° Southwest 186 214 2,600 2,044 Climbing Cleveland Center
Mon 09:51:50 AM 42.1578 -83.4486 245° Southwest 201 231 4,600 2,648 Climbing Cleveland Center
Mon 09:53:21 AM 42.1944 -83.5569 295° West 211 243 9,000 2,623 Climbing Cleveland Center
Mon 09:54:21 AM 42.2239 -83.6339 297° West 232 267 11,200 2,500 Climbing Cleveland Center
Mon 09:55:21 AM 42.2606 -83.7397 295° West 272 313 14,000 2,900 Climbing Cleveland Center
Mon 09:56:21 AM 42.2992 -83.8453 296° West 303 349 17,000 2,700 Climbing Cleveland Center
Mon 09:57:21 AM 42.3419 -83.9572 297° West 320 368 19,400 2,450 Climbing Cleveland Center
Mon 09:58:21 AM 42.3842 -84.0775 295° West 340 391 21,900 2,600 Climbing Cleveland Center
Mon 09:59:21 AM 42.4219 -84.2006 293° West 352 405 24,600 2,400 Climbing Cleveland Center
Mon 10:00:21 AM 42.4300 -84.3475 274° West 364 419 26,700 1,700 Climbing Cleveland Center
Mon 10:01:21 AM 42.4333 -84.4967 272° West 385 443 28,000 1,252 Climbing Cleveland Center
Mon 10:02:16 AM 42.4383 -84.6367 273° West 417 480 29,100 1,590 Climbing Chicago Center
Mon 10:03:18 AM 42.4422 -84.7967 272° West 424 488 31,100 1,403 Climbing Chicago Center
Mon 10:04:20 AM 42.4483 -84.9822 273° West 413 475 32,000 435 Climbing Chicago Center
Mon 10:05:22 AM 42.4514 -85.1406 272° West 420 483 32,000 387 Level Chicago Center
Mon 10:06:24 AM 42.4536 -85.2972 271° West 417 480 32,800 480 Climbing Chicago Center
Mon 10:07:27 AM 42.4564 -85.4539 271° West 417 480 33,000 96 Climbing Chicago Center
Mon 10:08:29 AM 42.4589 -85.6133 271° West 416 479 33,000  Level Chicago Center
Mon 10:09:31 AM 42.4614 -85.7647 271° West 410 472 33,000  Level Chicago Center
Mon 10:10:33 AM 42.4633 -85.9219 271° West 415 478 33,000 624 Level Chicago Center
Mon 10:11:36 AM 42.4644 -86.1111 271° West 416 479 34,300 1,210 Climbing Chicago Center
Mon 10:12:37 AM 42.4442 -86.2747 261° West 437 503 35,500 829 Climbing Chicago Center
Mon 10:13:39 AM 42.4239 -86.4378 260° West 440 506 36,000 242 Climbing Chicago Center
Mon 10:14:41 AM 42.4028 -86.5983 260° West 435 501 36,000  Level Chicago Center
Mon 10:15:43 AM 42.3831 -86.7667 261° West 437 503 36,000  Level Chicago Center
Mon 10:16:45 AM 42.3617 -86.9269 260° West 437 503 36,000  Level Chicago Center
Mon 10:17:48 AM 42.3361 -87.1161 260° West 429 494 36,000  Level Chicago Center
Mon 10:18:50 AM 42.3150 -87.2728 260° West 427 491 36,000  Level Chicago Center
Mon 10:19:52 AM 42.2939 -87.4308 260° West 430 495 36,000  Level Chicago Center
Mon 10:20:54 AM 42.2722 -87.5881 260° West 430 495 36,000  Level Chicago Center
Mon 10:21:56 AM 42.2503 -87.7447 259° West 429 494 36,000  Level Chicago Center
Mon 10:22:58 AM 42.2233 -87.9328 259° West 427 491 36,000  Level Chicago Center
Mon 10:24:00 AM 42.1975 -88.0892 257° West 432 497 36,000  Level Chicago Center
Mon 10:25:02 AM 42.1697 -88.2458 257° West 433 498 36,000  Level Chicago Center
Mon 10:26:04 AM 42.1414 -88.4036 256° West 434 499 36,000  Level Chicago Center
Mon 10:27:06 AM 42.1125 -88.5594 256° West 433 498 36,000  Level Chicago Center
Mon 10:28:08 AM 42.0792 -88.7486 257° West 437 503 36,000  Level Chicago Center
Mon 10:29:10 AM 42.0503 -88.9058 256° West 438 504 36,000  Level Chicago Center
Mon 10:30:13 AM 42.0211 -89.0625 256° West 436 502 36,000  Level Chicago Center
Mon 10:31:15 AM 41.9922 -89.2211 256° West 440 506 36,000  Level Chicago Center
Mon 10:32:17 AM 41.9622 -89.3778 256° West 439 505 36,000  Level Chicago Center
Mon 10:33:19 AM 41.9272 -89.5661 256° West 437 503 36,000  Level Chicago Center
Mon 10:34:21 AM 41.8969 -89.7228 255° West 437 503 36,000  Level Chicago Center
Mon 10:35:23 AM 41.8675 -89.8783 256° West 436 502 36,000  Level Chicago Center
Mon 10:36:25 AM 41.8397 -90.0356 257° West 438 504 36,000  Level Chicago Center
Mon 10:37:27 AM 41.8069 -90.1950 255° West 441 507 36,000  Level Chicago Center
Mon 10:38:29 AM 41.7700 -90.3856 255° West 441 507 36,000  Level Chicago Center
Mon 10:39:31 AM 41.7381 -90.5425 255° West 440 506 36,000  Level Chicago Center
Mon 10:40:33 AM 41.7025 -90.6972 253° West 440 506 36,000  Level Chicago Center
Mon 10:41:35 AM 41.6411 -90.8503 242° Southwest 461 531 36,000  Level Chicago Center
Mon 10:42:37 AM 41.5839 -91.0033 243° Southwest 463 533 36,000 532 Level Chicago Center
Mon 10:43:39 AM 41.5117 -91.1878 242° Southwest 470 541 37,100 960 Climbing Chicago Center
Mon 10:44:42 AM 41.4561 -91.3431 245° Southwest 468 539 38,000 432 Climbing Chicago Center
Mon 10:45:44 AM 41.4156 -91.5008 251° West 452 520 38,000  Level Chicago Center
Mon 10:46:46 AM 41.3744 -91.6589 251° West 454 522 38,000  Level Chicago Center
Mon 10:47:48 AM 41.3319 -91.8175 250° West 456 525 38,000  Level Chicago Center
Mon 10:48:50 AM 41.2814 -92.0072 251° West 456 525 38,000  Level Chicago Center
Mon 10:49:52 AM 41.2403 -92.1631 251° West 452 520 38,000  Level Chicago Center
Mon 10:50:54 AM 41.1942 -92.3294 250° West 452 520 38,000  Level Chicago Center
Mon 10:51:56 AM 41.1519 -92.4847 250° West 453 521 38,000  Level Chicago Center
Mon 10:52:58 AM 41.1092 -92.6406 250° West 455 524 38,000  Level Chicago Center
Mon 10:54:00 AM 41.0658 -92.7972 250° West 457 526 38,000  Level Chicago Center
Mon 10:54:56 AM 41.0228 -92.9564 250° West 461 531 38,000  Level Minneapolis Center
Mon 10:55:58 AM 40.9781 -93.1139 249° West 463 533 38,000  Level Minneapolis Center
Mon 10:57:00 AM 40.9339 -93.2692 249° West 458 527 38,000  Level Minneapolis Center
Mon 10:58:02 AM 40.8819 -93.4592 250° West 462 532 38,000  Level Minneapolis Center
Mon 10:59:03 AM 40.8369 -93.6164 249° West 462 532 38,000  Level Minneapolis Center
Mon 11:00:05 AM 40.7908 -93.7750 249° West 465 535 38,000  Level Minneapolis Center
Mon 11:01:07 AM 40.7439 -93.9331 249° West 467 537 38,000  Level Minneapolis Center
Mon 11:02:09 AM 40.7008 -94.0894 250° West 462 532 38,000  Level Minneapolis Center
Mon 11:03:11 AM 40.6442 -94.2772 248° West 463 533 38,000  Level Minneapolis Center
Mon 11:04:13 AM 40.5958 -94.4350 248° West 465 535 38,000  Level Minneapolis Center
Mon 11:05:14 AM 40.5497 -94.5964 249° West 464 534 38,000  Level Minneapolis Center
Mon 11:06:16 AM 40.5033 -94.7550 249° West 464 534 38,000  Level Minneapolis Center
Mon 11:07:18 AM 40.4564 -94.9139 249° West 466 536 38,000  Level Minneapolis Center
Mon 11:08:20 AM 40.4081 -95.0744 248° West 469 540 38,000  Level Minneapolis Center
Mon 11:09:22 AM 40.3603 -95.2342 249° West 470 541 38,000  Level Minneapolis Center
Mon 11:10:24 AM 40.3111 -95.3936 248° West 470 541 38,000  Level Minneapolis Center
Mon 11:11:25 AM 40.2633 -95.5533 249° West 470 541 38,000  Level Minneapolis Center
Mon 11:12:27 AM 40.2047 -95.7450 248° West 471 542 38,000  Level Minneapolis Center
Mon 11:13:29 AM 40.1553 -95.9039 248° West 471 542 38,000  Level Minneapolis Center
Mon 11:14:30 AM 40.1047 -96.0631 247° West 471 542 38,000  Level Minneapolis Center
Mon 11:15:32 AM 40.0544 -96.2219 248° West 472 543 38,000  Level Minneapolis Center
Mon 11:16:34 AM 40.0056 -96.3814 248° West 474 545 38,000  Level Minneapolis Center
Mon 11:17:36 AM 39.9542 -96.5428 247° West 477 549 38,000  Level Minneapolis Center
Mon 11:18:37 AM 39.9028 -96.7044 248° West 481 554 38,000  Level Minneapolis Center
Mon 11:19:39 AM 39.8414 -96.8950 247° West 477 549 38,000  Level Minneapolis Center
Mon 11:20:41 AM 39.7894 -97.0536 247° West 477 549 38,000  Level Minneapolis Center
Mon 11:21:42 AM 39.7383 -97.2117 247° West 474 545 38,000  Level Minneapolis Center
Mon 11:22:44 AM 39.6872 -97.3706 247° West 475 547 38,000  Level Minneapolis Center
Mon 11:23:46 AM 39.6350 -97.5278 247° West 475 547 38,000  Level Minneapolis Center
Mon 11:24:48 AM 39.5828 -97.6847 247° West 475 547 38,000  Level Minneapolis Center
Mon 11:25:49 AM 39.5306 -97.8428 247° West 476 548 38,000  Level Minneapolis Center
Mon 11:26:51 AM 39.4775 -98.0017 247° West 477 549 38,000  Level Minneapolis Center
Mon 11:27:53 AM 39.4139 -98.1917 247° West 478 550 38,000  Level Minneapolis Center
Mon 11:28:21 AM 39.3919 -98.2567 246° West 480 552 38,000  Level Denver Center
Mon 11:28:56 AM 39.3606 -98.3511 247° West 476 548 38,000  Level Kansas City Center
Mon 11:29:23 AM 39.3386 -98.4150 246° West 480 552 38,000  Level Denver Center
Mon 11:30:25 AM 39.2850 -98.5739 246° West 481 554 38,000  Level Denver Center
Mon 11:31:27 AM 39.2303 -98.7311 246° West 478 550 38,000  Level Denver Center
Mon 11:32:29 AM 39.1644 -98.9214 246° West 481 554 38,000  Level Denver Center
Mon 11:33:31 AM 39.1106 -99.0758 246° West 480 552 38,000  Level Denver Center
Mon 11:34:33 AM 39.0586 -99.2258 246° West 480 552 38,000  Level Denver Center
Mon 11:35:35 AM 38.9981 -99.4019 246° West 482 555 38,000  Level Denver Center
Mon 11:36:38 AM 38.9447 -99.5506 245° Southwest 480 552 38,000  Level Denver Center
Mon 11:37:40 AM 38.8831 -99.7233 245° Southwest 478 550 38,000  Level Denver Center
Mon 11:38:42 AM 38.8311 -99.8703 246° West 477 549 38,000  Level Denver Center
Mon 11:39:44 AM 38.7692 -100.0425 245° Southwest 477 549 38,000  Level Denver Center
Mon 11:40:46 AM 38.7164 -100.1892 245° Southwest 475 547 38,000  Level Denver Center
Mon 11:41:48 AM 38.6558 -100.3578 245° Southwest 469 540 38,000  Level Denver Center
Mon 11:42:50 AM 38.6036 -100.5017 245° Southwest 468 539 38,000  Level Denver Center
Mon 11:43:52 AM 38.5419 -100.6686 245° Southwest 469 540 38,000  Level Denver Center
Mon 11:45:06 AM 38.4794 -100.8364 245° Southwest 471 542 38,000  Level Denver Center
Mon 11:46:08 AM 38.4175 -101.0044 245° Southwest 471 542 38,000  Level Denver Center
Mon 11:47:10 AM 38.3639 -101.1481 245° Southwest 471 542 38,000  Level Denver Center
Mon 11:48:12 AM 38.3058 -101.3175 246° West 470 541 38,000  Level Denver Center
Mon 11:49:14 AM 38.2739 -101.4675 255° West 462 532 38,000  Level Denver Center
Mon 11:50:16 AM 38.2331 -101.6456 254° West 468 539 38,000  Level Denver Center
Mon 11:51:18 AM 38.1989 -101.7978 254° West 470 541 38,000  Level Denver Center
Mon 11:52:21 AM 38.1611 -101.9758 255° West 470 541 38,000  Level Denver Center
Mon 11:53:23 AM 38.1269 -102.1267 254° West 470 541 38,000  Level Denver Center
Mon 11:54:25 AM 38.0686 -102.2981 247° West 473 544 38,000  Level Denver Center
Mon 11:55:27 AM 38.0242 -102.4453 249° West 470 541 38,000  Level Denver Center
Mon 11:56:29 AM 37.9714 -102.6167 249° West 463 533 38,000  Level Denver Center
Mon 11:57:31 AM 37.9231 -102.7633 247° West 468 539 38,000  Level Denver Center
Mon 11:58:33 AM 37.8683 -102.9347 248° West 470 541 38,000  Level Denver Center
Mon 11:59:35 AM 37.8225 -103.0828 249° West 472 543 38,000  Level Denver Center
Mon 12:00:37 PM 37.7667 -103.2539 248° West 471 542 38,000  Level Denver Center
Mon 12:01:39 PM 37.7192 -103.4011 248° West 473 544 38,000  Level Denver Center
Mon 12:02:41 PM 37.6642 -103.5722 248° West 471 542 38,000  Level Denver Center
Mon 12:03:43 PM 37.6161 -103.7186 248° West 472 543 38,000  Level Denver Center
Mon 12:04:45 PM 37.5683 -103.8642 248° West 469 540 38,000  Level Denver Center
Mon 12:05:47 PM 37.5069 -104.0447 247° West 474 545 38,000  Level Denver Center
Mon 12:06:49 PM 37.4583 -104.1922 247° West 474 545 38,000  Level Denver Center
Mon 12:07:51 PM 37.4100 -104.3375 247° West 471 542 38,000  Level Denver Center
Mon 12:08:53 PM 37.3522 -104.5092 247° West 475 547 38,000  Level Denver Center
Mon 12:09:55 PM 37.3028 -104.6558 247° West 476 548 38,000  Level Denver Center
Mon 12:10:57 PM 37.2453 -104.8256 247° West 474 545 38,000  Level Denver Center
Mon 12:11:59 PM 37.1956 -104.9706 247° West 473 544 38,000  Level Denver Center
Mon 12:13:01 PM 37.1372 -105.1389 247° West 473 544 38,000  Level Denver Center
Mon 12:14:03 PM 37.0875 -105.2822 247° West 469 540 38,000  Level Denver Center
Mon 12:15:05 PM 37.0278 -105.4492 246° West 469 540 38,000  Level Denver Center
Mon 12:16:07 PM 36.9775 -105.5956 247° West 475 547 38,000  Level Denver Center
Mon 12:16:39 PM 36.9531 -105.6725 248° West 488 562 38,000  Level Albuquerque Center
Mon 12:17:09 PM 36.9192 -105.7650 245° Southwest 475 547 38,000  Level Denver Center
Mon 12:18:11 PM 36.8681 -105.9108 246° West 478 550 38,000  Level Denver Center
Mon 12:19:13 PM 36.8061 -106.0800 245° Southwest 478 550 38,000  Level Denver Center
Mon 12:20:15 PM 36.7542 -106.2275 246° West 481 554 38,000  Level Denver Center
Mon 12:21:17 PM 36.7008 -106.3767 246° West 479 551 38,000  Level Denver Center
Mon 12:22:19 PM 36.6408 -106.5397 245° Southwest 477 549 38,000  Level Denver Center
Mon 12:22:50 PM 36.6147 -106.6153 247° West 480 552 38,000  Level Albuquerque Center
Mon 12:23:21 PM 36.5903 -106.6864 247° West 479 551 38,000  Level Denver Center
Mon 12:24:23 PM 36.5272 -106.8550 245° Southwest 481 554 38,000  Level Denver Center
Mon 12:25:26 PM 36.4756 -107.0017 246° West 483 556 38,000  Level Denver Center
Mon 12:26:28 PM 36.4125 -107.1711 245° Southwest 484 557 38,000  Level Denver Center
Mon 12:27:30 PM 36.3597 -107.3158 246° West 482 555 38,000  Level Denver Center
Mon 12:28:00 PM 36.3319 -107.3906 245° Southwest 485 558 38,000  Level Albuquerque Center
Mon 12:29:02 PM 36.2692 -107.5583 245° Southwest 483 556 38,000  Level Albuquerque Center
Mon 12:30:04 PM 36.2156 -107.7014 245° Southwest 479 551 38,000  Level Albuquerque Center
Mon 12:31:06 PM 36.1233 -107.8469 232° Southwest 476 548 38,000  Level Albuquerque Center
Mon 12:32:08 PM 36.0464 -107.9733 233° Southwest 478 550 38,000 -194 Level Albuquerque Center
Mon 12:33:10 PM 35.9542 -108.1169 232° Southwest 477 549 37,600 -484 Descending Albuquerque Center
Mon 12:34:12 PM 35.8753 -108.2428 232° Southwest 479 551 37,000 -726 Descending Albuquerque Center
Mon 12:35:14 PM 35.7961 -108.3689 232° Southwest 482 555 36,100 -484 Descending Albuquerque Center
Mon 12:36:16 PM 35.7044 -108.5164 233° Southwest 483 556 36,000 -48 Descending Albuquerque Center
Mon 12:37:18 PM 35.6169 -108.6367 228° Southwest 486 559 36,000  Level Albuquerque Center
Mon 12:38:20 PM 35.5136 -108.7772 228° Southwest 491 565 36,000 -194 Level Albuquerque Center
Mon 12:39:22 PM 35.4247 -108.8981 228° Southwest 494 568 35,600 -726 Descending Albuquerque Center
Mon 12:40:24 PM 35.3214 -109.0392 228° Southwest 496 571 34,500 -774 Descending Albuquerque Center
Mon 12:41:26 PM 35.2331 -109.1589 228° Southwest 495 570 34,000 -242 Descending Albuquerque Center
Mon 12:42:28 PM 35.1439 -109.2781 228° Southwest 495 570 34,000  Level Albuquerque Center
Mon 12:43:30 PM 35.0400 -109.4200 228° Southwest 498 573 34,000  Level Albuquerque Center
Mon 12:44:32 PM 34.9483 -109.5350 226° Southwest 494 568 34,000  Level Albuquerque Center
Mon 12:45:34 PM 34.8436 -109.6764 228° Southwest 498 573 34,000  Level Albuquerque Center
Mon 12:46:36 PM 34.7539 -109.7942 227° Southwest 497 572 34,000  Level Albuquerque Center
Mon 12:47:38 PM 34.6711 -109.9550 238° Southwest 507 583 34,000  Level Albuquerque Center
Mon 12:48:40 PM 34.6172 -110.1042 246° West 504 580 34,000  Level Albuquerque Center
Mon 12:49:43 PM 34.5561 -110.2828 247° West 508 585 34,000 -576 Level Albuquerque Center
Mon 12:50:45 PM 34.4981 -110.4189 243° Southwest 490 564 32,800 -1,742 Descending Albuquerque Center
Mon 12:51:47 PM 34.4433 -110.5758 247° West 501 577 30,400 -2,226 Descending Albuquerque Center
Mon 12:52:49 PM 34.3883 -110.7219 246° West 484 557 28,200 -2,274 Descending Albuquerque Center
Mon 12:53:51 PM 34.3167 -110.8503 236° Southwest 465 535 25,700 -2,516 Descending Albuquerque Center
Mon 12:54:53 PM 34.2119 -110.9789 225° Southwest 451 519 23,000 -2,323 Descending Albuquerque Center
Mon 12:55:55 PM 34.1317 -111.0836 227° Southwest 433 498 20,900 -1,984 Descending Albuquerque Center
Mon 12:56:57 PM 34.0525 -111.1850 227° Southwest 420 483 18,900 -1,935 Descending Albuquerque Center
Mon 12:57:59 PM 33.9767 -111.2836 227° Southwest 406 467 16,900 -1,742 Descending Albuquerque Center
Mon 12:59:01 PM 33.9042 -111.3767 227° Southwest 390 449 15,300 -1,355 Descending Albuquerque Center
Mon 01:00:03 PM 33.8469 -111.4683 233° Southwest 348 400 14,100 -1,403 Descending Albuquerque Center
Mon 01:01:05 PM 33.7975 -111.5644 238° Southwest 338 389 12,400 -1,742 Descending Albuquerque Center
Mon 01:02:07 PM 33.7392 -111.6756 238° Southwest 327 376 10,500 -1,161 Descending Albuquerque Center
Mon 01:03:09 PM 33.6922 -111.7625 237° Southwest 313 360 10,000 -484 Descending Albuquerque Center
Mon 01:04:11 PM 33.6472 -111.8444 237° Southwest 298 343 9,500 -484 Descending Albuquerque Center
Mon 01:05:13 PM 33.6058 -111.9203 237° Southwest 279 321 9,000 -581 Descending Albuquerque Center
Mon 01:06:15 PM 33.5681 -111.9922 238° Southwest 261 300 8,300 -968 Descending Albuquerque Center
Mon 01:07:17 PM 33.5311 -112.0636 238° Southwest 254 292 7,000 -919 Descending Albuquerque Center
Mon 01:08:19 PM 33.5264 -112.1428 266° West 247 284 6,400 -1,258 Descending Albuquerque Center
Mon 01:09:21 PM 33.4881 -112.2147 237° Southwest 249 287 4,400 -1,452 Descending Albuquerque Center
Mon 01:10:23 PM 33.4417 -112.1731 143° Southeast 238 274 3,400 -968 Descending Albuquerque Center
Mon 01:11:25 PM 33.4411 -112.1064 91° East 217 250 2,400 -823 Descending Albuquerque Center
Mon 01:12:27 PM 33.4414 -112.0558 90° East 187 215 1,700 -581 Descending Albuquerque Center
Mon 01:13:29 PM 33.4389 -112.0044 93° East 165 190 1,200 -484 Descending Albuquerque Center

Login

Don't have an account? Register now (free) for customized features, flight alerts, and more!